Aviation Digital Data Service (ADDS)

Output produced by METARs form (1430 UTC 19 July 2019)
found at http://aviationweather.gov/metar/data/
 
METAR text: KGGG 191353Z 21010KT 190V260 10SM BKN008 27/24 A3003 RMK AO2 SLP160 T02670244
Conditions at: KGGG (LONGVIEW , TX, US) observed 1353 UTC 19 July 2019
Temperature: 26.7°C (80°F)
Dewpoint: 24.4°C (76°F) [RH = 87%]
Pressure (altimeter): 30.03 inches Hg (1017.0 mb)
[Sea-level pressure: 1016.0 mb]
Winds: from the SSW (210 degrees) at 12 MPH (10 knots; 5.1 m/s)
Visibility: 10 or more miles (16+ km)
Ceiling: 800 feet AGL
Clouds: broken clouds at 800 feet AGL
Weather: no significant weather observed at this time

METAR text: KGGG 191255Z 19006KT 7SM BKN008 26/25 A3001 RMK AO2 T02560250
Conditions at: KGGG (LONGVIEW , TX, US) observed 1255 UTC 19 July 2019
Temperature: 25.6°C (78°F)
Dewpoint: 25.0°C (77°F) [RH = 96%]
Pressure (altimeter): 30.01 inches Hg (1016.3 mb)
Winds: from the S (190 degrees) at 7 MPH (6 knots; 3.1 m/s)
Visibility: 7 miles (11 km)
Ceiling: 800 feet AGL
Clouds: broken clouds at 800 feet AGL
Weather: no significant weather observed at this time

METAR text: KGGG 191253Z 19006KT 10SM BKN010 26/25 A3001 RMK AO2 SLP154 T02560250
Conditions at: KGGG (LONGVIEW , TX, US) observed 1253 UTC 19 July 2019
Temperature: 25.6°C (78°F)
Dewpoint: 25.0°C (77°F) [RH = 96%]
Pressure (altimeter): 30.01 inches Hg (1016.3 mb)
[Sea-level pressure: 1015.4 mb]
Winds: from the S (190 degrees) at 7 MPH (6 knots; 3.1 m/s)
Visibility: 10 or more miles (16+ km)
Ceiling: 1000 feet AGL
Clouds: broken clouds at 1000 feet AGL
Weather: no significant weather observed at this time

Forecast for: KGGG (LONGVIEW , TX, US)
Text: KGGG 191302Z 1913/2012 19006KT P6SM BKN008
Forecast period: 1300 to 1400 UTC 19 July 2019
Forecast type: FROM: standard forecast or significant change
Winds: from the S (190 degrees) at 7 MPH (6 knots; 3.1 m/s)
Visibility: 6 or more miles 10+ km)
Ceiling: 800 feet AGL
Clouds: broken clouds at 800 feet AGL
Weather: no significant weather forecast for this period
Text: FM191400 19010KT P6SM SCT035
Forecast period: 1400 to 1800 UTC 19 July 2019
Forecast type: FROM: standard forecast or significant change
Winds: from the S (190 degrees) at 12 MPH (10 knots; 5.1 m/s)
Visibility: 6 or more miles 10+ km)
Ceiling: at least 12,000 feet AGL
Clouds: scattered clouds at 3500 feet AGL
Weather: no significant weather forecast for this period
Text: FM191800 20010G16KT P6SM SCT040
Forecast period: 1800 to 2100 UTC 19 July 2019
Forecast type: FROM: standard forecast or significant change
Winds: from the SSW (200 degrees) at 12 MPH (10 knots; 5.1 m/s)
gusting to 18 MPH (16 knots; 8.2 m/s)
Visibility: 6 or more miles 10+ km)
Ceiling: at least 12,000 feet AGL
Clouds: scattered clouds at 4000 feet AGL
Weather: no significant weather forecast for this period
Text: FM192100 18009KT P6SM SCT040
Forecast period: 2100 UTC 19 July 2019 to 0000 UTC 20 July 2019
Forecast type: FROM: standard forecast or significant change
Winds: from the S (180 degrees) at 10 MPH (9 knots; 4.6 m/s)
Visibility: 6 or more miles 10+ km)
Ceiling: at least 12,000 feet AGL
Clouds: scattered clouds at 4000 feet AGL
Weather: no significant weather forecast for this period
Text: FM200000 16005KT P6SM SKC
Forecast period: 0000 to 0600 UTC 20 July 2019
Forecast type: FROM: standard forecast or significant change
Winds: from the SSE (160 degrees) at 6 MPH (5 knots; 2.6 m/s)
Visibility: 6 or more miles 10+ km)
Clouds: clear skies
Weather: no significant weather forecast for this period
Text: FM200600 19008KT P6SM SCT100
Forecast period: 0600 to 1200 UTC 20 July 2019
Forecast type: FROM: standard forecast or significant change
Winds: from the S (190 degrees) at 9 MPH (8 knots; 4.1 m/s)
Visibility: 6 or more miles 10+ km)
Ceiling: at least 12,000 feet AGL
Clouds: scattered clouds at 10000 feet AGL
Weather: no significant weather forecast for this period